createdAt,value
2022-10-05T00:01:30.701Z,57.52
2022-10-05T00:04:17.230Z,57.12
2022-10-05T00:06:47.558Z,56.68
2022-10-05T00:09:23.438Z,56.82
2022-10-05T00:11:51.177Z,56.50
2022-10-05T00:14:21.435Z,56.18
2022-10-05T00:16:48.683Z,56.90
2022-10-05T00:19:21.523Z,56.57
2022-10-05T00:21:48.408Z,57.82
2022-10-05T00:24:19.446Z,58.75
2022-10-05T00:26:46.415Z,58.40
2022-10-05T00:29:22.223Z,57.92
2022-10-05T00:31:50.445Z,58.29
2022-10-05T00:34:17.928Z,58.27
2022-10-05T00:36:45.626Z,58.10
2022-10-05T00:39:12.802Z,58.32
2022-10-05T00:41:48.500Z,57.28
2022-10-05T00:44:41.895Z,58.48
2022-10-05T00:47:36.439Z,57.72
2022-10-05T00:50:30.031Z,57.89
2022-10-05T00:53:33.139Z,58.38
2022-10-05T00:56:18.739Z,58.67
2022-10-05T00:59:11.218Z,57.78
2022-10-05T01:01:52.983Z,57.76
2022-10-05T01:04:38.352Z,57.92
2022-10-05T01:07:34.380Z,57.52
2022-10-05T01:10:15.972Z,57.21
2022-10-05T01:12:54.435Z,57.59
2022-10-05T01:15:51.748Z,57.30
2022-10-05T01:18:44.365Z,57.80
2022-10-05T01:21:21.874Z,59.10
2022-10-05T01:24:10.329Z,58.23
2022-10-05T01:26:58.493Z,58.53
2022-10-05T01:30:03.388Z,58.81
2022-10-05T01:32:59.634Z,59.07
2022-10-05T01:35:41.391Z,58.46
2022-10-05T01:38:22.902Z,58.40
2022-10-05T01:40:57.607Z,58.24
2022-10-05T01:43:42.287Z,59.65
2022-10-05T01:46:23.389Z,59.69
2022-10-05T01:49:16.375Z,59.30
2022-10-05T01:52:17.551Z,59.90
2022-10-05T01:54:50.187Z,60.09
2022-10-05T01:57:48.548Z,62.10
2022-10-05T02:00:18.220Z,61.97
2022-10-05T02:02:52.618Z,61.28
2022-10-05T02:05:29.222Z,61.16
2022-10-05T02:08:15.739Z,60.66
2022-10-05T02:10:51.843Z,60.26
2022-10-05T02:13:39.799Z,60.99
2022-10-05T02:16:16.601Z,60.58
2022-10-05T02:19:02.357Z,60.65
2022-10-05T02:21:31.519Z,60.65
2022-10-05T02:24:03.454Z,60.79
2022-10-05T02:26:33.354Z,60.87
2022-10-05T02:29:04.619Z,60.93
2022-10-05T02:31:43.254Z,62.28
2022-10-05T02:34:36.230Z,62.07
2022-10-05T02:37:15.667Z,62.78
2022-10-05T02:40:23.668Z,62.60
2022-10-05T02:43:21.091Z,62.54
2022-10-05T02:45:54.018Z,61.94
2022-10-05T02:48:26.426Z,64.45
2022-10-05T02:51:24.191Z,62.38
2022-10-05T02:54:07.936Z,61.22
2022-10-05T02:56:52.367Z,61.83
2022-10-05T02:59:40.599Z,61.21
2022-10-05T03:02:09.815Z,64.19
2022-10-05T03:04:39.309Z,63.37
2022-10-05T03:07:13.563Z,62.96
2022-10-05T03:10:04.494Z,62.64
2022-10-05T03:12:53.955Z,62.02
2022-10-05T03:15:57.267Z,60.46
2022-10-05T03:18:30.918Z,60.77
2022-10-05T03:21:24.465Z,60.78
2022-10-05T03:24:31.361Z,60.85
2022-10-05T03:27:27.123Z,60.44
2022-10-05T03:29:53.641Z,60.88
2022-10-05T03:32:51.772Z,60.23
2022-10-05T03:35:30.012Z,61.53
2022-10-05T03:38:02.802Z,62.50
2022-10-05T03:40:55.932Z,62.59
2022-10-05T03:43:54.691Z,63.56
2022-10-05T03:46:21.253Z,62.65
2022-10-05T03:48:50.511Z,61.99
2022-10-05T03:51:42.791Z,62.67
2022-10-05T03:54:23.539Z,61.94
2022-10-05T03:56:55.779Z,62.34
2022-10-05T03:59:22.318Z,63.79
2022-10-05T04:01:56.927Z,63.03
2022-10-05T04:04:33.248Z,62.29
2022-10-05T04:07:01.608Z,62.23
2022-10-05T04:09:36.688Z,62.43
2022-10-05T04:12:24.970Z,62.96
2022-10-05T04:14:59.438Z,63.16
2022-10-05T04:17:35.022Z,62.69
2022-10-05T04:20:14.951Z,63.70
2022-10-05T04:22:52.102Z,64.00
2022-10-05T04:25:25.271Z,64.13
2022-10-05T04:28:22.721Z,64.67
2022-10-05T04:30:52.179Z,64.66
2022-10-05T04:33:18.925Z,63.73
2022-10-05T04:36:22.523Z,63.75
2022-10-05T04:39:07.643Z,64.69
2022-10-05T04:42:09.147Z,64.37
2022-10-05T04:44:55.883Z,64.64
2022-10-05T04:47:35.448Z,64.27
2022-10-05T04:50:15.808Z,63.84
2022-10-05T04:53:10.210Z,63.76
2022-10-05T04:55:42.444Z,64.37
2022-10-05T04:58:24.937Z,64.02
2022-10-05T05:01:06.732Z,64.31
2022-10-05T05:03:50.052Z,63.45
2022-10-05T05:06:22.274Z,63.25
2022-10-05T05:09:22.241Z,64.48
2022-10-05T05:12:11.586Z,63.41
2022-10-05T05:14:55.350Z,62.60
2022-10-05T05:17:37.123Z,61.77
2022-10-05T05:20:06.485Z,61.03
2022-10-05T05:23:01.045Z,61.85
2022-10-05T05:25:56.649Z,62.82
2022-10-05T05:28:46.228Z,63.47
2022-10-05T05:31:33.344Z,63.15
2022-10-05T05:34:12.071Z,63.21
2022-10-05T05:36:58.000Z,61.83
2022-10-05T05:39:45.412Z,61.47
2022-10-05T05:42:46.101Z,61.49
2022-10-05T05:45:39.178Z,60.57
2022-10-05T05:48:19.421Z,61.62
2022-10-05T05:50:58.344Z,61.48
2022-10-05T05:53:35.323Z,61.42
2022-10-05T05:56:06.864Z,61.09
2022-10-05T05:58:41.665Z,60.06
2022-10-05T06:01:33.221Z,60.47
2022-10-05T06:04:11.030Z,60.37
2022-10-05T06:06:42.503Z,60.05
2022-10-05T06:09:40.548Z,59.26
2022-10-05T06:12:14.686Z,58.86
2022-10-05T06:14:44.967Z,58.28
2022-10-05T06:17:18.415Z,59.00
2022-10-05T06:19:47.353Z,58.88
2022-10-05T06:22:30.498Z,58.08
2022-10-05T06:25:12.404Z,57.78
2022-10-05T06:27:57.943Z,58.22
2022-10-05T06:30:30.968Z,58.75
2022-10-05T06:33:06.481Z,57.42
2022-10-05T06:35:39.079Z,57.39
2022-10-05T06:38:27.447Z,57.34
2022-10-05T06:41:01.801Z,56.78
2022-10-05T06:43:31.017Z,56.40
2022-10-05T06:46:19.279Z,56.00
2022-10-05T06:48:53.197Z,58.50
2022-10-05T06:51:34.639Z,58.30
2022-10-05T06:54:04.714Z,60.29
2022-10-05T06:56:43.941Z,60.00
2022-10-05T06:59:18.553Z,60.35
2022-10-05T07:02:06.179Z,60.69
2022-10-05T07:04:36.713Z,61.43
2022-10-05T07:07:38.268Z,61.32
2022-10-05T07:10:22.699Z,60.60
2022-10-05T07:13:29.876Z,60.22
2022-10-05T07:16:26.411Z,58.98
2022-10-05T07:19:02.155Z,57.57
2022-10-05T07:21:43.843Z,57.10
2022-10-05T07:24:32.382Z,56.25
2022-10-05T07:27:17.249Z,59.08
2022-10-05T07:29:55.682Z,56.96
2022-10-05T07:32:47.061Z,56.34
2022-10-05T07:36:17.082Z,58.29
2022-10-05T07:39:23.485Z,57.39
2022-10-05T07:41:59.886Z,56.42
2022-10-05T07:44:53.178Z,55.98
2022-10-05T07:47:27.364Z,55.92
2022-10-05T07:49:58.107Z,55.35
2022-10-05T07:52:36.746Z,56.14
2022-10-05T07:55:47.268Z,56.83
2022-10-05T07:58:19.211Z,57.08
2022-10-05T08:00:59.634Z,56.18
2022-10-05T08:03:58.612Z,55.51
2022-10-05T08:06:48.532Z,55.04
2022-10-05T08:09:36.212Z,54.65
2022-10-05T08:12:27.457Z,54.78
2022-10-05T08:14:58.974Z,53.56
2022-10-05T08:17:51.308Z,53.64
2022-10-05T08:20:26.710Z,53.94
2022-10-05T08:23:12.327Z,54.35
2022-10-05T08:25:53.556Z,53.40
2022-10-05T08:28:26.137Z,52.96
2022-10-05T08:31:11.157Z,52.97
2022-10-05T08:34:02.718Z,52.65
2022-10-05T08:36:53.693Z,52.61
2022-10-05T08:39:26.400Z,51.54
2022-10-05T08:42:11.288Z,50.34
2022-10-05T08:44:56.686Z,50.71
2022-10-05T08:47:49.147Z,51.19
2022-10-05T08:50:16.158Z,51.85
2022-10-05T08:53:07.783Z,51.41
2022-10-05T08:55:46.583Z,51.60
2022-10-05T08:58:26.095Z,51.45
2022-10-05T09:01:12.158Z,52.47
2022-10-05T09:04:17.592Z,51.70
2022-10-05T09:07:08.538Z,51.64
2022-10-05T09:10:13.172Z,50.42
2022-10-05T09:13:16.566Z,50.95
2022-10-05T09:16:09.227Z,51.13
2022-10-05T09:19:04.279Z,50.50
2022-10-05T09:21:42.153Z,50.60
2022-10-05T09:24:14.357Z,51.17
2022-10-05T09:26:40.876Z,49.05
2022-10-05T09:29:26.261Z,48.83
2022-10-05T09:32:20.260Z,49.51
2022-10-05T09:34:47.782Z,46.38
2022-10-05T09:37:56.219Z,46.44
2022-10-05T09:40:41.825Z,43.83
2022-10-05T09:43:26.446Z,43.86
2022-10-05T09:46:01.963Z,43.38
2022-10-05T09:48:34.482Z,42.30
2022-10-05T09:51:06.903Z,42.30
2022-10-05T09:53:47.163Z,41.84
2022-10-05T09:56:22.911Z,43.91
2022-10-05T09:59:15.384Z,43.06
2022-10-05T10:02:20.915Z,43.92
2022-10-05T10:05:04.157Z,43.76
2022-10-05T10:07:50.243Z,44.50
2022-10-05T10:10:22.557Z,42.94
2022-10-05T10:13:13.945Z,42.34
2022-10-05T10:16:04.533Z,42.15
2022-10-05T10:19:00.113Z,43.25
2022-10-05T10:21:57.376Z,41.48
2022-10-05T10:24:35.486Z,40.91
2022-10-05T10:27:16.597Z,41.06
2022-10-05T10:29:43.107Z,40.76
2022-10-05T10:32:12.666Z,40.13
2022-10-05T10:34:54.108Z,39.23
2022-10-05T10:37:57.851Z,40.17
2022-10-05T10:40:30.233Z,41.43
2022-10-05T10:43:05.682Z,41.23
2022-10-05T10:46:23.889Z,40.62
2022-10-05T10:49:29.405Z,40.29
2022-10-05T10:52:22.811Z,39.47
2022-10-05T10:55:10.863Z,39.03
2022-10-05T10:57:56.029Z,39.36
2022-10-05T11:00:55.763Z,39.23
2022-10-05T11:03:40.895Z,40.38
2022-10-05T11:06:22.809Z,38.29
2022-10-05T11:09:15.058Z,38.16
2022-10-05T11:12:17.822Z,38.86
2022-10-05T11:15:02.415Z,38.71
2022-10-05T11:17:48.203Z,38.43
2022-10-05T11:20:35.641Z,38.69
2022-10-05T11:23:39.193Z,38.36
2022-10-05T11:26:44.500Z,38.69
2022-10-05T11:29:20.060Z,39.12
2022-10-05T11:32:08.455Z,37.74
2022-10-05T11:35:06.127Z,37.22
2022-10-05T11:37:58.989Z,38.19
2022-10-05T11:41:02.181Z,36.80
2022-10-05T11:43:37.712Z,36.44
2022-10-05T11:46:52.496Z,34.02
2022-10-05T11:49:32.766Z,35.46
2022-10-05T11:51:59.292Z,35.76
2022-10-05T11:55:05.920Z,35.78
2022-10-05T11:57:43.150Z,36.71
2022-10-05T12:00:12.926Z,36.31
2022-10-05T12:02:56.009Z,35.98
2022-10-05T12:05:49.225Z,37.87
2022-10-05T12:08:49.973Z,37.42
2022-10-05T12:12:01.760Z,35.01
2022-10-05T12:14:37.981Z,36.21
2022-10-05T12:17:17.011Z,36.23
2022-10-05T12:19:55.561Z,35.75
2022-10-05T12:22:45.822Z,36.14
2022-10-05T12:25:19.158Z,34.96
2022-10-05T12:27:49.384Z,34.42
2022-10-05T12:30:33.106Z,34.16
2022-10-05T12:33:02.989Z,36.25
2022-10-05T12:35:48.965Z,35.96
2022-10-05T12:38:32.890Z,36.33
2022-10-05T12:41:10.883Z,35.99
2022-10-05T12:44:14.067Z,35.94
2022-10-05T12:46:59.323Z,37.66
2022-10-05T12:49:47.830Z,33.77
2022-10-05T12:52:33.149Z,35.36
2022-10-05T12:55:18.154Z,34.43
2022-10-05T12:58:03.361Z,33.68
2022-10-05T13:00:31.977Z,35.21
2022-10-05T13:03:23.391Z,34.31
2022-10-05T13:06:08.512Z,34.88
2022-10-05T13:08:58.976Z,34.57
2022-10-05T13:11:36.162Z,35.88
2022-10-05T13:14:16.556Z,34.25
2022-10-05T13:17:10.210Z,34.87
2022-10-05T13:19:44.641Z,35.10
2022-10-05T13:22:30.771Z,36.07
2022-10-05T13:25:13.660Z,35.55
2022-10-05T13:27:55.339Z,35.50
2022-10-05T13:30:22.273Z,35.64
2022-10-05T13:33:20.760Z,35.42
2022-10-05T13:36:01.567Z,35.66
2022-10-05T13:38:48.965Z,34.92
2022-10-05T13:41:50.216Z,34.49
2022-10-05T13:44:34.216Z,33.84
2022-10-05T13:47:00.939Z,34.63
2022-10-05T13:49:59.767Z,33.97
2022-10-05T13:52:44.894Z,35.14
2022-10-05T13:55:14.179Z,34.86
2022-10-05T13:57:57.508Z,34.34
2022-10-05T14:00:27.124Z,35.29
2022-10-05T14:02:56.713Z,35.29
2022-10-05T14:05:24.573Z,36.50
2022-10-05T14:07:52.940Z,35.75
2022-10-05T14:10:49.209Z,35.31
2022-10-05T14:13:24.090Z,34.82
2022-10-05T14:16:12.587Z,35.98
2022-10-05T14:18:51.779Z,34.92
2022-10-05T14:21:23.943Z,36.64
2022-10-05T14:23:51.708Z,37.47
2022-10-05T14:26:19.895Z,37.80
2022-10-05T14:29:03.043Z,37.97
2022-10-05T14:31:37.430Z,38.26
2022-10-05T14:34:29.319Z,38.35
2022-10-05T14:37:29.894Z,39.91
2022-10-05T14:40:03.466Z,38.51
2022-10-05T14:42:46.966Z,39.50
2022-10-05T14:45:20.050Z,39.53
2022-10-05T14:47:52.381Z,41.76
2022-10-05T14:50:26.115Z,39.68
2022-10-05T14:53:21.353Z,39.46
2022-10-05T14:56:03.102Z,40.75
2022-10-05T14:58:57.776Z,39.86
2022-10-05T15:01:35.166Z,39.69
2022-10-05T15:04:26.378Z,40.35
2022-10-05T15:06:55.513Z,39.96
2022-10-05T15:09:52.324Z,41.50
2022-10-05T15:12:27.877Z,40.79
2022-10-05T15:15:02.917Z,40.19
2022-10-05T15:17:52.592Z,41.09
2022-10-05T15:20:29.303Z,40.90
2022-10-05T15:23:05.319Z,40.82
2022-10-05T15:25:40.534Z,41.16
2022-10-05T15:28:48.348Z,41.74
2022-10-05T15:31:34.035Z,42.13
2022-10-05T15:34:13.444Z,42.30
2022-10-05T15:36:48.007Z,42.42
2022-10-05T15:39:46.798Z,42.35
2022-10-05T15:42:20.243Z,43.56
2022-10-05T15:45:10.806Z,43.84
2022-10-05T15:48:00.095Z,43.66
2022-10-05T15:50:32.367Z,43.66
2022-10-05T15:52:59.203Z,43.98
2022-10-05T15:55:47.270Z,45.63
2022-10-05T15:58:49.770Z,44.62
2022-10-05T16:01:20.103Z,45.04
2022-10-05T16:04:02.304Z,47.85
2022-10-05T16:06:47.406Z,46.34
2022-10-05T16:09:19.822Z,45.57
2022-10-05T16:12:06.642Z,45.85
2022-10-05T16:14:59.824Z,45.83
2022-10-05T16:17:40.981Z,46.14
2022-10-05T16:20:50.092Z,47.31
2022-10-05T16:23:41.773Z,47.11
2022-10-05T16:26:42.934Z,47.04
2022-10-05T16:29:35.518Z,47.15
2022-10-05T16:32:22.530Z,48.65
2022-10-05T16:34:57.776Z,47.95
2022-10-05T16:37:32.209Z,47.60
2022-10-05T16:40:03.227Z,47.40
2022-10-05T16:42:50.937Z,48.41
2022-10-05T16:45:44.985Z,48.05
2022-10-05T16:48:18.141Z,48.55
2022-10-05T16:50:59.719Z,48.44
2022-10-05T16:53:34.205Z,48.64
2022-10-05T16:56:06.338Z,49.55
2022-10-05T16:58:56.428Z,49.74
2022-10-05T17:01:42.249Z,50.34
2022-10-05T17:04:12.186Z,50.79
2022-10-05T17:07:07.546Z,51.00
2022-10-05T17:09:43.304Z,50.75
2022-10-05T17:12:40.912Z,51.11
2022-10-05T17:15:31.934Z,51.40
2022-10-05T17:18:04.327Z,51.06
2022-10-05T17:20:33.981Z,51.19
2022-10-05T17:23:31.360Z,51.87
2022-10-05T17:26:02.380Z,51.25
2022-10-05T17:28:58.092Z,50.36
2022-10-05T17:31:28.103Z,51.20
2022-10-05T17:34:00.507Z,51.48
2022-10-05T17:36:54.240Z,52.23
2022-10-05T17:39:48.814Z,52.85
2022-10-05T17:42:30.272Z,52.87
2022-10-05T17:45:14.827Z,53.31
2022-10-05T17:48:03.457Z,53.46
2022-10-05T17:51:15.042Z,53.50
2022-10-05T17:54:03.241Z,53.56
2022-10-05T17:56:31.843Z,53.44
2022-10-05T17:59:00.153Z,53.69
2022-10-05T18:01:30.330Z,53.57
2022-10-05T18:04:12.455Z,53.49
2022-10-05T18:06:43.114Z,53.15
2022-10-05T18:09:17.088Z,53.18
2022-10-05T18:11:48.093Z,53.31
2022-10-05T18:14:24.925Z,53.04
2022-10-05T18:16:59.404Z,53.00
2022-10-05T18:19:31.485Z,52.63
2022-10-05T18:22:01.331Z,52.52
2022-10-05T18:24:41.190Z,52.41
2022-10-05T18:27:48.231Z,52.67
2022-10-05T18:30:20.900Z,52.78
2022-10-05T18:33:05.905Z,52.73
2022-10-05T18:35:51.402Z,52.37
2022-10-05T18:38:21.870Z,52.57
2022-10-05T18:40:53.529Z,52.96
2022-10-05T18:43:43.702Z,52.74
2022-10-05T18:46:39.487Z,53.03
2022-10-05T18:49:24.979Z,53.18
2022-10-05T18:52:20.121Z,53.61
2022-10-05T18:55:11.723Z,53.68
2022-10-05T18:58:10.568Z,53.59
2022-10-05T19:00:58.446Z,53.67
2022-10-05T19:04:13.168Z,53.72
2022-10-05T19:06:56.868Z,54.10
2022-10-05T19:09:42.019Z,53.79
2022-10-05T19:15:16.787Z,54.16
2022-10-05T19:18:01.538Z,54.31
2022-10-05T19:20:41.559Z,54.08
2022-10-05T19:23:22.383Z,53.68
2022-10-05T19:25:58.768Z,53.82
2022-10-05T19:28:37.038Z,53.98
2022-10-05T19:31:12.355Z,53.78
2022-10-05T19:34:22.257Z,53.35
2022-10-05T19:36:54.661Z,53.70
2022-10-05T19:39:37.356Z,53.93
2022-10-05T19:42:32.097Z,54.15
2022-10-05T19:45:28.111Z,54.50
2022-10-05T19:48:08.529Z,54.41
2022-10-05T19:50:38.485Z,54.24
2022-10-05T19:53:17.222Z,55.04
2022-10-05T19:55:47.180Z,55.08
2022-10-05T19:58:31.589Z,55.19
2022-10-05T20:03:53.293Z,55.89
2022-10-05T20:06:22.657Z,55.61
2022-10-05T20:08:51.957Z,55.33
2022-10-05T20:11:23.417Z,55.39
2022-10-05T20:13:52.990Z,55.39
2022-10-05T20:16:53.211Z,55.34
2022-10-05T20:19:50.685Z,55.25
2022-10-05T20:22:36.598Z,55.67
2022-10-05T20:25:18.209Z,55.19
2022-10-05T20:27:51.144Z,55.03
2022-10-05T20:30:37.965Z,55.30
2022-10-05T20:33:10.400Z,55.43
2022-10-05T20:35:36.975Z,55.87
2022-10-05T20:38:09.743Z,55.83
2022-10-05T20:40:36.372Z,56.04
2022-10-05T20:43:06.537Z,56.12
2022-10-05T20:45:33.106Z,56.06
2022-10-05T20:47:59.792Z,55.73
2022-10-05T20:50:27.582Z,56.00
2022-10-05T20:52:55.986Z,55.94
2022-10-05T20:55:22.590Z,56.02
2022-10-05T20:57:49.168Z,55.95
2022-10-05T21:00:15.830Z,56.04
2022-10-05T21:02:42.470Z,55.70
2022-10-05T21:05:12.460Z,55.61
2022-10-05T21:07:40.994Z,55.44
2022-10-05T21:10:08.424Z,54.88
2022-10-05T21:12:35.323Z,55.11
2022-10-05T21:15:04.735Z,55.42
2022-10-05T21:17:34.697Z,55.15
2022-10-05T21:20:01.305Z,54.89
2022-10-05T21:22:27.933Z,54.91
2022-10-05T21:24:55.220Z,55.09
2022-10-05T21:27:21.820Z,55.40
2022-10-05T21:29:48.426Z,55.21
2022-10-05T21:32:15.035Z,55.46
2022-10-05T21:34:41.755Z,55.31
2022-10-05T21:37:08.824Z,55.74
2022-10-05T21:39:36.698Z,56.10
2022-10-05T21:44:54.831Z,56.26
2022-10-05T21:47:21.425Z,56.21
2022-10-05T21:49:48.116Z,55.90
2022-10-05T21:52:14.886Z,56.74
2022-10-05T21:54:41.523Z,57.23
2022-10-05T21:57:11.791Z,57.37
2022-10-05T21:59:38.878Z,58.24
2022-10-05T22:02:05.547Z,58.88
2022-10-05T22:04:32.247Z,59.41
2022-10-05T22:06:59.288Z,60.11
2022-10-05T22:09:25.982Z,61.49
2022-10-05T22:11:52.717Z,64.26
2022-10-05T22:14:19.280Z,65.58
2022-10-05T22:16:46.022Z,64.91
2022-10-05T22:19:19.163Z,62.89
2022-10-05T22:21:45.893Z,61.86
2022-10-05T22:24:12.627Z,60.94
2022-10-05T22:26:41.750Z,60.35
2022-10-05T22:29:09.655Z,60.33
2022-10-05T22:31:36.902Z,60.10
2022-10-05T22:34:03.724Z,59.78
2022-10-05T22:36:30.417Z,59.69
2022-10-05T22:38:57.049Z,59.38
2022-10-05T22:41:23.642Z,59.15
2022-10-05T22:43:51.310Z,58.79
2022-10-05T22:46:18.401Z,59.21
2022-10-05T22:48:45.114Z,58.94
2022-10-05T22:51:13.833Z,58.99
2022-10-05T22:53:40.506Z,58.80
2022-10-05T22:56:12.578Z,58.83
2022-10-05T22:58:39.992Z,58.49
2022-10-05T23:01:09.667Z,58.16
2022-10-05T23:03:36.509Z,58.24
2022-10-05T23:06:09.079Z,58.04
2022-10-05T23:08:37.655Z,58.90
2022-10-05T23:11:08.872Z,59.42
2022-10-05T23:13:35.821Z,61.13
2022-10-05T23:16:10.021Z,59.95
2022-10-05T23:18:37.166Z,59.74
2022-10-05T23:21:05.805Z,59.50
2022-10-05T23:23:32.409Z,58.94
2022-10-05T23:25:59.943Z,60.29
2022-10-05T23:28:28.000Z,60.01
2022-10-05T23:31:02.597Z,59.82
2022-10-05T23:33:29.576Z,60.41
2022-10-05T23:36:12.805Z,60.13
2022-10-05T23:38:39.604Z,60.40
2022-10-05T23:41:07.555Z,59.75
2022-10-05T23:43:34.680Z,59.30
2022-10-05T23:46:04.780Z,59.34
2022-10-05T23:48:32.311Z,60.46
2022-10-05T23:50:59.877Z,60.23
2022-10-05T23:53:26.664Z,60.60
2022-10-05T23:55:55.573Z,59.94
2022-10-05T23:58:22.897Z,59.35
